createdAt,value
2018-07-03T00:00:05.761Z,0.00
2018-07-03T00:01:05.765Z,0.00
2018-07-03T00:02:05.745Z,0.00
2018-07-03T00:03:05.731Z,0.00
2018-07-03T00:04:05.718Z,0.00
2018-07-03T00:05:05.710Z,0.00
2018-07-03T00:06:05.713Z,0.00
2018-07-03T00:07:05.685Z,0.00
2018-07-03T00:08:05.674Z,0.00
2018-07-03T00:09:05.662Z,0.00
2018-07-03T00:10:05.654Z,0.00
2018-07-03T00:11:05.657Z,0.00
2018-07-03T00:12:05.641Z,0.00
2018-07-03T00:13:05.639Z,0.00
2018-07-03T00:14:05.611Z,0.00
2018-07-03T00:15:05.598Z,0.00
2018-07-03T00:16:05.602Z,0.00
2018-07-03T00:17:05.576Z,0.00
2018-07-03T00:18:05.563Z,0.00
2018-07-03T00:19:05.557Z,0.00
2018-07-03T00:20:05.564Z,0.00
2018-07-03T00:21:05.554Z,0.00
2018-07-03T00:22:05.520Z,0.00
2018-07-03T00:23:05.510Z,0.00
2018-07-03T00:24:05.499Z,0.00
2018-07-03T00:25:05.513Z,0.00
2018-07-03T00:26:05.474Z,0.00
2018-07-03T00:27:05.479Z,0.00
2018-07-03T00:28:05.467Z,0.00
2018-07-03T00:29:05.448Z,0.00
2018-07-03T00:30:05.432Z,0.00
2018-07-03T00:31:05.419Z,0.00
2018-07-03T00:32:05.412Z,0.00
2018-07-03T00:33:05.420Z,0.00
2018-07-03T00:34:05.388Z,0.00
2018-07-03T00:35:05.416Z,0.00
2018-07-03T00:36:05.369Z,0.00
2018-07-03T00:37:05.355Z,0.00
2018-07-03T00:38:05.369Z,0.00
2018-07-03T00:39:05.335Z,0.00
2018-07-03T00:40:05.326Z,0.00
2018-07-03T00:41:05.311Z,0.00
2018-07-03T00:42:05.304Z,0.00
2018-07-03T00:43:05.290Z,0.00
2018-07-03T00:44:05.297Z,0.00
2018-07-03T00:45:05.276Z,0.00
2018-07-03T00:46:05.261Z,0.00
2018-07-03T00:47:05.250Z,0.00
2018-07-03T00:48:05.241Z,0.00
2018-07-03T00:49:05.226Z,0.00
2018-07-03T00:50:05.234Z,0.00
2018-07-03T00:51:05.204Z,0.00
2018-07-03T00:52:05.201Z,0.00
2018-07-03T00:53:05.182Z,0.00
2018-07-03T00:54:05.174Z,0.00
2018-07-03T00:55:05.173Z,0.00
2018-07-03T00:56:05.171Z,0.00
2018-07-03T00:57:05.141Z,0.00
2018-07-03T00:58:05.127Z,0.00
2018-07-03T00:59:05.120Z,0.00
2018-07-03T01:00:05.108Z,0.00
2018-07-03T01:01:05.097Z,0.00
2018-07-03T01:02:05.097Z,0.00
2018-07-03T01:03:05.082Z,0.00
2018-07-03T01:04:05.064Z,0.00
2018-07-03T01:05:05.055Z,0.00
2018-07-03T01:06:05.057Z,0.00
2018-07-03T01:07:05.056Z,0.00
2018-07-03T01:08:05.027Z,0.00
2018-07-03T01:09:05.010Z,0.00
2018-07-03T01:10:05.002Z,0.00
2018-07-03T01:11:05.024Z,0.00
2018-07-03T01:12:04.975Z,0.00
2018-07-03T01:13:04.978Z,0.00
2018-07-03T01:14:04.956Z,0.00
2018-07-03T01:15:04.947Z,0.00
2018-07-03T01:16:04.935Z,0.00
2018-07-03T01:17:04.938Z,0.00
2018-07-03T01:18:04.910Z,0.00
2018-07-03T01:19:04.902Z,0.00
2018-07-03T01:20:04.889Z,0.00
2018-07-03T01:21:04.903Z,0.00
2018-07-03T01:22:04.881Z,0.00
2018-07-03T01:23:04.867Z,0.00
2018-07-03T01:24:04.846Z,0.00
2018-07-03T01:25:04.859Z,0.00
2018-07-03T01:26:04.825Z,0.00
2018-07-03T01:27:04.834Z,0.00
2018-07-03T01:28:04.802Z,0.00
2018-07-03T01:29:04.791Z,0.00
2018-07-03T01:30:04.779Z,0.00
2018-07-03T01:31:04.782Z,0.00
2018-07-03T01:32:04.758Z,0.00
2018-07-03T01:33:04.748Z,0.00
2018-07-03T01:34:04.737Z,0.00
2018-07-03T01:35:04.740Z,0.00
2018-07-03T01:36:04.769Z,0.00
2018-07-03T01:37:04.705Z,0.00
2018-07-03T01:38:04.690Z,0.00
2018-07-03T01:39:04.682Z,0.00
2018-07-03T01:40:04.681Z,0.00
2018-07-03T01:41:04.658Z,0.00
2018-07-03T01:42:04.657Z,0.00
2018-07-03T01:43:04.637Z,0.00
2018-07-03T01:44:04.626Z,0.00
2018-07-03T01:45:04.617Z,0.00
2018-07-03T01:46:04.604Z,0.00
2018-07-03T01:47:04.607Z,0.00
2018-07-03T01:48:04.597Z,0.00
2018-07-03T01:49:04.574Z,0.00
2018-07-03T01:50:04.557Z,0.00
2018-07-03T01:51:04.549Z,0.00
2018-07-03T01:52:04.550Z,0.00
2018-07-03T01:53:04.524Z,0.00
2018-07-03T01:54:04.540Z,0.00
2018-07-03T01:55:04.501Z,0.00
2018-07-03T01:56:04.507Z,0.00
2018-07-03T01:57:04.478Z,0.00
2018-07-03T01:58:04.484Z,0.00
2018-07-03T01:59:04.456Z,0.00
2018-07-03T02:00:04.461Z,0.00
2018-07-03T02:01:04.434Z,0.00
2018-07-03T02:02:04.448Z,0.00
2018-07-03T02:03:04.415Z,0.00
2018-07-03T02:04:04.402Z,0.00
2018-07-03T02:05:04.391Z,0.00
2018-07-03T02:06:04.382Z,0.00
2018-07-03T02:07:04.369Z,0.00
2018-07-03T02:08:04.372Z,0.00
2018-07-03T02:09:04.385Z,0.00
2018-07-03T02:10:04.337Z,0.00
2018-07-03T02:11:04.326Z,0.00
2018-07-03T02:12:04.314Z,0.00
2018-07-03T02:13:04.300Z,0.00
2018-07-03T02:14:04.290Z,0.00
2018-07-03T02:15:04.314Z,0.00
2018-07-03T02:16:04.268Z,0.00
2018-07-03T02:17:04.260Z,0.00
2018-07-03T02:18:04.248Z,0.00
2018-07-03T02:19:04.248Z,0.00
2018-07-03T02:20:04.240Z,0.00
2018-07-03T02:21:04.212Z,0.00
2018-07-03T02:22:04.200Z,0.00
2018-07-03T02:23:04.192Z,0.00
2018-07-03T02:24:04.196Z,0.00
2018-07-03T02:25:04.185Z,0.00
2018-07-03T02:26:04.159Z,0.00
2018-07-03T02:27:04.166Z,4.00
2018-07-03T02:28:04.133Z,4.00
2018-07-03T02:29:04.127Z,4.00
2018-07-03T02:30:04.114Z,0.00
2018-07-03T02:31:04.110Z,4.00
2018-07-03T02:32:04.108Z,4.00
2018-07-03T02:33:04.080Z,4.00
2018-07-03T02:34:04.068Z,4.00
2018-07-03T02:35:04.059Z,4.00
2018-07-03T02:36:04.048Z,8.00
2018-07-03T02:37:04.037Z,8.00
2018-07-03T02:38:04.038Z,8.00
2018-07-03T02:39:04.061Z,12.00
2018-07-03T02:40:03.999Z,12.00
2018-07-03T02:41:03.988Z,12.00
2018-07-03T02:42:03.991Z,16.00
2018-07-03T02:43:04.381Z,16.00
2018-07-03T02:44:03.955Z,16.00
2018-07-03T02:45:03.943Z,24.00
2018-07-03T02:46:03.932Z,24.00
2018-07-03T02:47:03.924Z,28.00
2018-07-03T02:48:03.909Z,32.00
2018-07-03T02:49:03.915Z,36.00
2018-07-03T02:50:03.892Z,36.00
2018-07-03T02:51:03.878Z,44.00
2018-07-03T02:52:03.877Z,48.00
2018-07-03T02:53:03.852Z,52.00
2018-07-03T02:54:03.853Z,60.00
2018-07-03T02:55:03.843Z,68.00
2018-07-03T02:56:03.820Z,76.00
2018-07-03T02:57:03.808Z,84.00
2018-07-03T02:58:03.798Z,92.00
2018-07-03T02:59:03.805Z,104.00
2018-07-03T03:00:03.777Z,112.00
2018-07-03T03:01:03.767Z,128.00
2018-07-03T03:02:03.764Z,140.00
2018-07-03T03:03:03.747Z,156.00
2018-07-03T03:04:03.732Z,168.00
2018-07-03T03:05:03.733Z,184.00
2018-07-03T03:06:03.712Z,200.00
2018-07-03T03:07:03.697Z,216.00
2018-07-03T03:08:03.687Z,236.00
2018-07-03T03:09:03.678Z,252.00
2018-07-03T03:10:03.689Z,276.00
2018-07-03T03:11:03.656Z,296.00
2018-07-03T03:12:03.644Z,320.00
2018-07-03T03:13:03.632Z,340.00
2018-07-03T03:14:03.624Z,368.00
2018-07-03T03:15:03.613Z,388.00
2018-07-03T03:16:03.615Z,420.00
2018-07-03T03:17:03.591Z,444.00
2018-07-03T03:18:03.581Z,472.00
2018-07-03T03:19:03.568Z,500.00
2018-07-03T03:20:03.561Z,528.00
2018-07-03T03:21:03.567Z,560.00
2018-07-03T03:22:03.539Z,592.00
2018-07-03T03:23:03.526Z,624.00
2018-07-03T03:24:03.518Z,656.00
2018-07-03T03:25:03.517Z,688.00
2018-07-03T03:26:03.497Z,724.00
2018-07-03T03:27:03.505Z,756.00
2018-07-03T03:28:03.488Z,788.00
2018-07-03T03:29:03.465Z,828.00
2018-07-03T03:30:03.455Z,860.00
2018-07-03T03:31:03.445Z,896.00
2018-07-03T03:32:03.430Z,932.00
2018-07-03T03:33:03.431Z,968.00
2018-07-03T03:34:03.406Z,1000.00
2018-07-03T03:35:03.398Z,1040.00
2018-07-03T03:36:03.387Z,1076.00
2018-07-03T03:37:03.377Z,1116.00
2018-07-03T03:38:03.384Z,1148.00
2018-07-03T03:39:03.377Z,1188.00
2018-07-03T03:40:03.345Z,1224.00
2018-07-03T03:41:03.331Z,1260.00
2018-07-03T03:42:03.323Z,1296.00
2018-07-03T03:43:03.313Z,1328.00
2018-07-03T03:44:03.298Z,1368.00
2018-07-03T03:45:03.303Z,1400.00
2018-07-03T03:46:03.278Z,1440.00
2018-07-03T03:47:03.271Z,1476.00
2018-07-03T03:48:03.259Z,1512.00
2018-07-03T03:49:03.266Z,1548.00
2018-07-03T03:50:03.255Z,1584.00
2018-07-03T03:51:03.227Z,1616.00
2018-07-03T03:52:03.213Z,1652.00
2018-07-03T03:53:03.205Z,1684.00
2018-07-03T03:54:03.191Z,1716.00
2018-07-03T03:55:03.198Z,1752.00
2018-07-03T03:56:03.170Z,1788.00
2018-07-03T03:57:03.165Z,1816.00
2018-07-03T03:58:03.151Z,1848.00
2018-07-03T03:59:03.149Z,1876.00
2018-07-03T04:00:03.131Z,1908.00
2018-07-03T04:01:03.115Z,1940.00
2018-07-03T04:02:03.113Z,1972.00
2018-07-03T04:03:03.094Z,2004.00
2018-07-03T04:04:03.095Z,2032.00
2018-07-03T04:05:03.072Z,2064.00
2018-07-03T04:06:03.064Z,2088.00
2018-07-03T04:07:03.057Z,2116.00
2018-07-03T04:08:03.073Z,2148.00
2018-07-03T04:09:03.032Z,2172.00
2018-07-03T04:10:03.021Z,2204.00
2018-07-03T04:11:03.012Z,2232.00
2018-07-03T04:12:03.003Z,2256.00
2018-07-03T04:13:03.009Z,2284.00
2018-07-03T04:14:02.977Z,2312.00
2018-07-03T04:15:02.971Z,2336.00
2018-07-03T04:16:02.958Z,2364.00
2018-07-03T04:17:02.948Z,2388.00
2018-07-03T04:18:02.937Z,2412.00
2018-07-03T04:19:02.962Z,2436.00
2018-07-03T04:20:02.914Z,2460.00
2018-07-03T04:21:02.905Z,2484.00
2018-07-03T04:22:02.893Z,2508.00
2018-07-03T04:23:02.884Z,2532.00
2018-07-03T04:24:02.885Z,2556.00
2018-07-03T04:25:02.883Z,2580.00
2018-07-03T04:26:02.850Z,2604.00
2018-07-03T04:27:02.837Z,2624.00
2018-07-03T04:28:02.828Z,2644.00
2018-07-03T04:29:02.818Z,2668.00
2018-07-03T04:30:02.805Z,2688.00
2018-07-03T04:31:02.813Z,2708.00
2018-07-03T04:32:02.786Z,2732.00
2018-07-03T04:33:02.777Z,2752.00
2018-07-03T04:34:02.771Z,2772.00
2018-07-03T04:35:02.753Z,2788.00
2018-07-03T04:36:02.744Z,2808.00
2018-07-03T04:37:02.753Z,2832.00
2018-07-03T04:38:02.720Z,2852.00
2018-07-03T04:39:02.713Z,2868.00
2018-07-03T04:40:02.698Z,2884.00
2018-07-03T04:41:02.724Z,2904.00
2018-07-03T04:42:02.675Z,2924.00
2018-07-03T04:43:02.663Z,2944.00
2018-07-03T04:44:02.653Z,2964.00
2018-07-03T04:45:02.648Z,2980.00
2018-07-03T04:46:02.631Z,3000.00
2018-07-03T04:47:02.642Z,3020.00
2018-07-03T04:48:02.607Z,3040.00
2018-07-03T04:49:02.595Z,3056.00
2018-07-03T04:50:02.583Z,3072.00
2018-07-03T04:51:02.574Z,3092.00
2018-07-03T04:52:02.566Z,3108.00
2018-07-03T04:53:02.562Z,3124.00
2018-07-03T04:54:02.544Z,3144.00
2018-07-03T04:55:02.527Z,3160.00
2018-07-03T04:56:02.538Z,3176.00
2018-07-03T04:57:02.506Z,3192.00
2018-07-03T04:58:02.507Z,3208.00
2018-07-03T04:59:02.506Z,3232.00
2018-07-03T05:00:02.472Z,3248.00
2018-07-03T05:01:02.466Z,3260.00
2018-07-03T05:02:02.449Z,3280.00
2018-07-03T05:03:02.441Z,3292.00
2018-07-03T05:04:02.438Z,3308.00
2018-07-03T05:05:02.417Z,3320.00
2018-07-03T05:06:02.405Z,3340.00
2018-07-03T05:07:02.399Z,3348.00
2018-07-03T05:08:02.384Z,3364.00
2018-07-03T05:09:02.387Z,3384.00
2018-07-03T05:10:02.380Z,3400.00
2018-07-03T05:11:02.387Z,3412.00
2018-07-03T05:12:02.343Z,3424.00
2018-07-03T05:13:02.333Z,3444.00
2018-07-03T05:14:02.320Z,3456.00
2018-07-03T05:15:02.312Z,3472.00
2018-07-03T05:16:02.299Z,3484.00
2018-07-03T05:17:02.303Z,3496.00
2018-07-03T05:18:02.279Z,3516.00
2018-07-03T05:19:02.264Z,3528.00
2018-07-03T05:20:02.274Z,3540.00
2018-07-03T05:21:02.245Z,3556.00
2018-07-03T05:22:02.237Z,3568.00
2018-07-03T05:23:02.220Z,3584.00
2018-07-03T05:24:02.212Z,3600.00
2018-07-03T05:25:02.199Z,3612.00
2018-07-03T05:26:02.203Z,3632.00
2018-07-03T05:27:02.180Z,3644.00
2018-07-03T05:28:02.191Z,3664.00
2018-07-03T05:29:02.158Z,3676.00
2018-07-03T05:30:02.146Z,3692.00
2018-07-03T05:31:02.138Z,3704.00
2018-07-03T05:32:02.129Z,3720.00
2018-07-03T05:33:02.117Z,3732.00
2018-07-03T05:34:02.142Z,3744.00
2018-07-03T05:35:02.094Z,3756.00
2018-07-03T05:36:02.082Z,3768.00
2018-07-03T05:37:02.071Z,3784.00
2018-07-03T05:38:02.064Z,3796.00
2018-07-03T05:39:02.067Z,3812.00
2018-07-03T05:40:02.054Z,3820.00
2018-07-03T05:41:02.030Z,3840.00
2018-07-03T05:42:02.057Z,3856.00
2018-07-03T05:43:02.017Z,3864.00
2018-07-03T05:44:01.998Z,3880.00
2018-07-03T05:45:01.989Z,3896.00
2018-07-03T05:46:01.989Z,3912.00
2018-07-03T05:47:01.964Z,3928.00
2018-07-03T05:48:01.969Z,3936.00
2018-07-03T05:49:01.943Z,3948.00
2018-07-03T05:50:01.958Z,3964.00
2018-07-03T05:51:01.980Z,3976.00
2018-07-03T05:52:01.914Z,3992.00
2018-07-03T05:53:01.903Z,4004.00
2018-07-03T05:54:01.893Z,4020.00
2018-07-03T05:55:01.881Z,4032.00
2018-07-03T05:56:01.870Z,4048.00
2018-07-03T05:57:01.899Z,4068.00
2018-07-03T05:58:02.089Z,4084.00
2018-07-03T05:59:01.844Z,4104.00
2018-07-03T06:00:01.866Z,4116.00
2018-07-03T06:01:01.814Z,4132.00
2018-07-03T06:02:01.825Z,4152.00
2018-07-03T06:03:01.805Z,4168.00
2018-07-03T06:04:01.795Z,4184.00
2018-07-03T06:05:01.772Z,4200.00
2018-07-03T06:06:01.777Z,4220.00
2018-07-03T06:07:01.751Z,4236.00
2018-07-03T06:08:01.740Z,4256.00
2018-07-03T06:09:01.744Z,4272.00
2018-07-03T06:10:01.741Z,4292.00
2018-07-03T06:11:01.712Z,4308.00
2018-07-03T06:12:01.695Z,4328.00
2018-07-03T06:13:01.748Z,4352.00
2018-07-03T06:14:01.675Z,4372.00
2018-07-03T06:15:01.668Z,4392.00
2018-07-03T06:16:01.660Z,4408.00
2018-07-03T06:17:01.639Z,4428.00
2018-07-03T06:18:01.637Z,4448.00
2018-07-03T06:19:01.616Z,4464.00
2018-07-03T06:20:01.613Z,4488.00
2018-07-03T06:21:01.634Z,4508.00
2018-07-03T06:22:01.585Z,4528.00
2018-07-03T06:23:01.667Z,4552.00
2018-07-03T06:24:01.565Z,4576.00
2018-07-03T06:25:01.552Z,4596.00
2018-07-03T06:26:01.544Z,4616.00
2018-07-03T06:27:01.547Z,4640.00
2018-07-03T06:28:01.525Z,4664.00
2018-07-03T06:29:01.579Z,4692.00
2018-07-03T06:30:01.501Z,4708.00
2018-07-03T06:31:01.488Z,4740.00
2018-07-03T06:32:01.478Z,4768.00
2018-07-03T06:33:01.467Z,4800.00
2018-07-03T06:34:01.457Z,4828.00
2018-07-03T06:35:01.463Z,4860.00
2018-07-03T06:36:01.434Z,4888.00
2018-07-03T06:37:01.435Z,4924.00
2018-07-03T06:38:01.419Z,4968.00
2018-07-03T06:39:01.422Z,4996.00
2018-07-03T06:40:01.393Z,5036.00
2018-07-03T06:41:01.378Z,5068.00
2018-07-03T06:42:01.371Z,5108.00
2018-07-03T06:43:01.358Z,5140.00
2018-07-03T06:44:01.350Z,5172.00
2018-07-03T06:45:01.482Z,5208.00
2018-07-03T06:46:01.365Z,5240.00
2018-07-03T06:47:01.340Z,5276.00
2018-07-03T06:48:01.309Z,5328.00
2018-07-03T06:49:01.292Z,5376.00
2018-07-03T06:50:01.302Z,5420.00
2018-07-03T06:51:01.269Z,5512.00
2018-07-03T06:52:01.263Z,5672.00
2018-07-03T06:53:01.253Z,5968.00
2018-07-03T06:54:01.240Z,6548.00
2018-07-03T06:55:01.268Z,7792.00
2018-07-03T06:56:01.235Z,25344.00
2018-07-03T06:57:01.208Z,42496.00
2018-07-03T06:58:01.209Z,45344.00
2018-07-03T06:59:01.214Z,45696.00
2018-07-03T07:00:01.173Z,44896.00
2018-07-03T07:01:01.166Z,45760.00
2018-07-03T07:02:01.153Z,45920.00
2018-07-03T07:03:01.139Z,45152.00
2018-07-03T07:04:01.130Z,45344.00
2018-07-03T07:05:01.146Z,45376.00
2018-07-03T07:06:01.125Z,42848.00
2018-07-03T07:07:01.153Z,42496.00
2018-07-03T07:08:01.091Z,43104.00
2018-07-03T07:09:01.233Z,43072.00
2018-07-03T07:10:01.071Z,44064.00
2018-07-03T07:11:01.082Z,42816.00
2018-07-03T07:12:01.044Z,47712.00
2018-07-03T07:13:01.084Z,49824.00
2018-07-03T07:14:01.027Z,50144.00
2018-07-03T07:15:01.068Z,52832.00
2018-07-03T07:16:01.008Z,54432.00
2018-07-03T07:17:01.009Z,56800.00
2018-07-03T07:18:00.981Z,58048.00
2018-07-03T07:19:00.998Z,58304.00
2018-07-03T07:20:00.964Z,58848.00
2018-07-03T07:21:00.978Z,56576.00
2018-07-03T07:22:00.938Z,58912.00
2018-07-03T07:23:00.931Z,58976.00
2018-07-03T07:24:00.920Z,56672.00
2018-07-03T07:25:00.954Z,58464.00
2018-07-03T07:26:00.923Z,61120.00
2018-07-03T07:27:00.904Z,61920.00
2018-07-03T07:28:00.876Z,62464.00
2018-07-03T07:29:00.867Z,61024.00
2018-07-03T07:30:00.889Z,59872.00
2018-07-03T07:31:00.844Z,58176.00
2018-07-03T07:32:00.887Z,58528.00
2018-07-03T07:33:00.825Z,59392.00
2018-07-03T07:34:00.823Z,62144.00
2018-07-03T07:35:00.802Z,64256.00
2018-07-03T07:36:00.836Z,65216.00
2018-07-03T07:37:00.799Z,67776.00
2018-07-03T07:38:00.774Z,69440.00
2018-07-03T07:39:00.776Z,67136.00
2018-07-03T07:40:00.753Z,60064.00
2018-07-03T07:41:00.743Z,57600.00
2018-07-03T07:42:00.729Z,65184.00
2018-07-03T07:43:00.722Z,67872.00
2018-07-03T07:44:00.738Z,64000.00
2018-07-03T07:45:00.699Z,62048.00
2018-07-03T07:46:00.708Z,67648.00
2018-07-03T07:47:00.683Z,71072.00
2018-07-03T07:48:00.700Z,72832.00
2018-07-03T07:49:00.694Z,73408.00
2018-07-03T07:50:00.660Z,71040.00
2018-07-03T07:51:00.637Z,71584.00
2018-07-03T07:52:00.632Z,72384.00
2018-07-03T07:53:00.622Z,73792.00
2018-07-03T07:54:00.607Z,73760.00
2018-07-03T07:55:00.642Z,63776.00
2018-07-03T07:56:00.584Z,52768.00
2018-07-03T07:57:00.577Z,57408.00
2018-07-03T07:58:00.563Z,65856.00
2018-07-03T07:59:00.553Z,67040.00
2018-07-03T08:00:00.546Z,70432.00
2018-07-03T08:01:00.549Z,73600.00
2018-07-03T08:02:00.522Z,75200.00
2018-07-03T08:03:00.514Z,74496.00
2018-07-03T08:04:00.504Z,73280.00
2018-07-03T08:05:00.508Z,75488.00
2018-07-03T08:06:00.499Z,75680.00
2018-07-03T08:07:00.473Z,73472.00
2018-07-03T08:08:00.462Z,69824.00
2018-07-03T08:09:00.450Z,68192.00
2018-07-03T08:10:00.439Z,71200.00
2018-07-03T08:11:00.455Z,77664.00
2018-07-03T08:12:00.451Z,79072.00
2018-07-03T08:13:00.452Z,80128.00
2018-07-03T08:14:00.401Z,80352.00
2018-07-03T08:15:00.390Z,80608.00
2018-07-03T08:16:00.381Z,83008.00
2018-07-03T08:17:00.386Z,82688.00
2018-07-03T08:18:00.364Z,86272.00
2018-07-03T08:19:00.351Z,94976.00
2018-07-03T08:20:00.364Z,102048.00
2018-07-03T08:21:00.331Z,83360.00
2018-07-03T08:22:00.345Z,54464.00
2018-07-03T08:23:00.308Z,37952.00
2018-07-03T08:24:00.301Z,49728.00
2018-07-03T08:25:00.290Z,78880.00
2018-07-03T08:26:00.278Z,97952.00
2018-07-03T08:27:00.267Z,102016.00
2018-07-03T08:28:00.273Z,95136.00
2018-07-03T08:29:00.250Z,88384.00
2018-07-03T08:30:00.237Z,82880.00
2018-07-03T08:31:00.230Z,85472.00
2018-07-03T08:32:00.241Z,90528.00
2018-07-03T08:33:00.272Z,85888.00
2018-07-03T08:34:00.214Z,77216.00
2018-07-03T08:35:00.187Z,80288.00
2018-07-03T08:36:00.177Z,75904.00
2018-07-03T08:37:00.169Z,91104.00
2018-07-03T08:38:00.172Z,87168.00
2018-07-03T08:39:00.150Z,74560.00
2018-07-03T08:40:00.137Z,74272.00
2018-07-03T08:41:00.128Z,86624.00
2018-07-03T08:42:00.115Z,98432.00
2018-07-03T08:43:00.124Z,91904.00
2018-07-03T08:44:00.095Z,88928.00
2018-07-03T08:45:00.091Z,94144.00
2018-07-03T08:46:00.078Z,95456.00
2018-07-03T08:47:00.069Z,91616.00
2018-07-03T08:48:00.084Z,93216.00
2018-07-03T08:49:00.046Z,93600.00
2018-07-03T08:50:00.041Z,95616.00
2018-07-03T08:51:00.030Z,98496.00
2018-07-03T08:52:00.086Z,100512.00
2018-07-03T08:53:00.010Z,99648.00
2018-07-03T08:54:00.040Z,93856.00
2018-07-03T08:55:00.041Z,93248.00
2018-07-03T08:55:59.979Z,94496.00
2018-07-03T08:56:59.967Z,94496.00
2018-07-03T08:57:59.957Z,93984.00
2018-07-03T08:58:59.951Z,98752.00
2018-07-03T08:59:59.950Z,96992.00
2018-07-03T09:00:59.929Z,94464.00
2018-07-03T09:01:59.919Z,86528.00
2018-07-03T09:02:59.907Z,81728.00
2018-07-03T09:03:59.899Z,63200.00
2018-07-03T09:04:59.908Z,62944.00
2018-07-03T09:05:59.888Z,74432.00
2018-07-03T09:06:59.872Z,83680.00
2018-07-03T09:07:59.861Z,86816.00
2018-07-03T09:08:59.851Z,90592.00
2018-07-03T09:09:59.838Z,89920.00
2018-07-03T09:10:59.849Z,93088.00
2018-07-03T09:11:59.818Z,95872.00
2018-07-03T09:12:59.811Z,98528.00
2018-07-03T09:13:59.802Z,100192.00
2018-07-03T09:14:59.815Z,103616.00
2018-07-03T09:15:59.779Z,105568.00
2018-07-03T09:16:59.783Z,107168.00
2018-07-03T09:17:59.776Z,108256.00
2018-07-03T09:18:59.752Z,110432.00
2018-07-03T09:19:59.751Z,111584.00
2018-07-03T09:20:59.730Z,110752.00
2018-07-03T09:21:59.735Z,111616.00
2018-07-03T09:22:59.709Z,113632.00
2018-07-03T09:23:59.703Z,110112.00
2018-07-03T09:24:59.690Z,108416.00
2018-07-03T09:25:59.679Z,99424.00
2018-07-03T09:26:59.673Z,79552.00
2018-07-03T09:27:59.671Z,67424.00
2018-07-03T09:28:59.651Z,61056.00
2018-07-03T09:29:59.640Z,59680.00
2018-07-03T09:30:59.630Z,55872.00
2018-07-03T09:31:59.620Z,60608.00
2018-07-03T09:32:59.630Z,77696.00
2018-07-03T09:33:59.601Z,86464.00
2018-07-03T09:34:59.640Z,81376.00
2018-07-03T09:35:59.583Z,88000.00
2018-07-03T09:36:59.574Z,79360.00
2018-07-03T09:37:59.564Z,76512.00
2018-07-03T09:38:59.567Z,82752.00
2018-07-03T09:39:59.546Z,85824.00
2018-07-03T09:40:59.535Z,77120.00
2018-07-03T09:41:59.530Z,71232.00
2018-07-03T09:42:59.514Z,79328.00
2018-07-03T09:43:59.531Z,80448.00
2018-07-03T09:44:59.494Z,95712.00
2018-07-03T09:45:59.484Z,96352.00
2018-07-03T09:46:59.478Z,98464.00
2018-07-03T09:47:59.463Z,101184.00
2018-07-03T09:48:59.455Z,96992.00
2018-07-03T09:49:59.459Z,90144.00
2018-07-03T09:50:59.432Z,89536.00
2018-07-03T09:51:59.434Z,81408.00
2018-07-03T09:52:59.414Z,67296.00
2018-07-03T09:53:59.406Z,85632.00
2018-07-03T09:54:59.440Z,101568.00
2018-07-03T09:55:59.382Z,114496.00
2018-07-03T09:56:59.374Z,113696.00
2018-07-03T09:57:59.383Z,116608.00
2018-07-03T09:58:59.355Z,117728.00
2018-07-03T09:59:59.343Z,117664.00
2018-07-03T10:00:59.349Z,117056.00
2018-07-03T10:01:59.329Z,114944.00
2018-07-03T10:02:59.319Z,108032.00
2018-07-03T10:03:59.307Z,96000.00
2018-07-03T10:04:59.297Z,105408.00
2018-07-03T10:05:59.306Z,113216.00
2018-07-03T10:06:59.277Z,115168.00
2018-07-03T10:07:59.268Z,117216.00
2018-07-03T10:08:59.258Z,117984.00
2018-07-03T10:09:59.250Z,117536.00
2018-07-03T10:10:59.250Z,116064.00
2018-07-03T10:11:59.241Z,118016.00
2018-07-03T10:12:59.240Z,118720.00
2018-07-03T10:13:59.232Z,115840.00
2018-07-03T10:14:59.249Z,111616.00
2018-07-03T10:15:59.214Z,108384.00
2018-07-03T10:16:59.186Z,110784.00
2018-07-03T10:17:59.170Z,112256.00
2018-07-03T10:18:59.230Z,116960.00
2018-07-03T10:19:59.154Z,119072.00
2018-07-03T10:20:59.142Z,119264.00
2018-07-03T10:21:59.143Z,116608.00
2018-07-03T10:22:59.125Z,115744.00
2018-07-03T10:23:59.112Z,117984.00
2018-07-03T10:24:59.117Z,122560.00
2018-07-03T10:25:59.093Z,123008.00
2018-07-03T10:26:59.099Z,124288.00
2018-07-03T10:27:59.094Z,121952.00
2018-07-03T10:28:59.067Z,115712.00
2018-07-03T10:29:59.055Z,107008.00
2018-07-03T10:30:59.047Z,95200.00
2018-07-03T10:31:59.034Z,81216.00
2018-07-03T10:32:59.035Z,63040.00
2018-07-03T10:33:59.041Z,87424.00
2018-07-03T10:34:59.027Z,111872.00
2018-07-03T10:35:59.000Z,114912.00
2018-07-03T10:36:58.993Z,112416.00
2018-07-03T10:37:58.978Z,101280.00
2018-07-03T10:38:58.985Z,96448.00
2018-07-03T10:39:58.967Z,83520.00
2018-07-03T10:40:59.013Z,84640.00
2018-07-03T10:41:59.033Z,69920.00
2018-07-03T10:42:58.929Z,98432.00
2018-07-03T10:43:58.933Z,103840.00
2018-07-03T10:44:58.915Z,103104.00
2018-07-03T10:45:58.903Z,96768.00
2018-07-03T10:46:58.894Z,106112.00
2018-07-03T10:47:58.896Z,112576.00
2018-07-03T10:48:58.924Z,113152.00
2018-07-03T10:49:58.869Z,115392.00
2018-07-03T10:50:58.857Z,115808.00
2018-07-03T10:51:58.848Z,117248.00
2018-07-03T10:52:58.836Z,117152.00
2018-07-03T10:53:58.869Z,116416.00
2018-07-03T10:54:58.820Z,117760.00
2018-07-03T10:55:58.807Z,113056.00
2018-07-03T10:56:58.799Z,111520.00
2018-07-03T10:57:58.787Z,111424.00
2018-07-03T10:58:58.779Z,114688.00
2018-07-03T10:59:58.782Z,110176.00
2018-07-03T11:00:58.758Z,106112.00
2018-07-03T11:01:58.760Z,89184.00
2018-07-03T11:02:58.754Z,95424.00
2018-07-03T11:03:58.746Z,106592.00
2018-07-03T11:04:58.716Z,106720.00
2018-07-03T11:05:58.708Z,110176.00
2018-07-03T11:06:58.724Z,114496.00
2018-07-03T11:07:58.711Z,112704.00
2018-07-03T11:08:58.677Z,115616.00
2018-07-03T11:09:58.668Z,116704.00
2018-07-03T11:10:58.661Z,117920.00
2018-07-03T11:11:58.694Z,118368.00
2018-07-03T11:12:58.660Z,118592.00
2018-07-03T11:13:58.753Z,118336.00
2018-07-03T11:14:58.621Z,117952.00
2018-07-03T11:15:58.611Z,116096.00
2018-07-03T11:16:58.605Z,116256.00
2018-07-03T11:17:58.626Z,116576.00
2018-07-03T11:18:58.626Z,115168.00
2018-07-03T11:19:58.635Z,112928.00
2018-07-03T11:20:58.566Z,112928.00
2018-07-03T11:21:58.557Z,110080.00
2018-07-03T11:22:58.547Z,111616.00
2018-07-03T11:23:58.543Z,114976.00
2018-07-03T11:24:58.557Z,115808.00
2018-07-03T11:25:58.522Z,116544.00
2018-07-03T11:26:58.512Z,118592.00
2018-07-03T11:27:58.501Z,119264.00
2018-07-03T11:28:58.515Z,118368.00
2018-07-03T11:29:58.482Z,116192.00
2018-07-03T11:30:58.502Z,117792.00
2018-07-03T11:31:58.460Z,114752.00
2018-07-03T11:32:58.452Z,115488.00
2018-07-03T11:33:58.443Z,117248.00
2018-07-03T11:34:58.436Z,115648.00
2018-07-03T11:35:58.443Z,115264.00
2018-07-03T11:36:58.416Z,116800.00
2018-07-03T11:37:58.405Z,116192.00
2018-07-03T11:38:58.399Z,115712.00
2018-07-03T11:39:58.397Z,116416.00
2018-07-03T11:40:58.393Z,117632.00
2018-07-03T11:41:58.380Z,117664.00
2018-07-03T11:42:58.390Z,118368.00
2018-07-03T11:43:58.353Z,121600.00
2018-07-03T11:44:58.385Z,118560.00
2018-07-03T11:45:58.335Z,118912.00
2018-07-03T11:46:58.325Z,119616.00
2018-07-03T11:47:58.313Z,119200.00
2018-07-03T11:48:58.305Z,118176.00
2018-07-03T11:49:58.294Z,120832.00
2018-07-03T11:50:58.301Z,119136.00
2018-07-03T11:51:58.284Z,118848.00
2018-07-03T11:52:58.284Z,116128.00
2018-07-03T11:53:58.260Z,114464.00
2018-07-03T11:54:58.248Z,109600.00
2018-07-03T11:55:58.242Z,112288.00
2018-07-03T11:56:58.255Z,113376.00
2018-07-03T11:57:58.220Z,115040.00
2018-07-03T11:58:58.211Z,113984.00
2018-07-03T11:59:58.205Z,113728.00
2018-07-03T12:00:58.215Z,107872.00
2018-07-03T12:01:58.186Z,115392.00
2018-07-03T12:02:58.196Z,119104.00
2018-07-03T12:03:58.173Z,116896.00
2018-07-03T12:04:58.157Z,103808.00
2018-07-03T12:05:58.151Z,111872.00
2018-07-03T12:06:58.139Z,92736.00
2018-07-03T12:07:58.129Z,94656.00